sensor_id;sensor_type;location;lat;lon;timestamp;temperature;humidity
5675;DHT22;2860;54.284;10.158;2022-08-04T00:00:43;19.10;99.90
5675;DHT22;2860;54.284;10.158;2022-08-04T00:03:23;19.10;99.90
5675;DHT22;2860;54.284;10.158;2022-08-04T00:06:03;19.00;99.90
5675;DHT22;2860;54.284;10.158;2022-08-04T00:11:00;19.00;99.90
5675;DHT22;2860;54.284;10.158;2022-08-04T00:13:29;19.00;99.90
5675;DHT22;2860;54.284;10.158;2022-08-04T00:16:09;19.00;99.90
5675;DHT22;2860;54.284;10.158;2022-08-04T00:18:45;18.90;99.90
5675;DHT22;2860;54.284;10.158;2022-08-04T00:21:15;18.90;99.90
5675;DHT22;2860;54.284;10.158;2022-08-04T00:23:43;18.90;99.90
5675;DHT22;2860;54.284;10.158;2022-08-04T00:26:09;18.80;99.90
5675;DHT22;2860;54.284;10.158;2022-08-04T00:28:36;18.80;99.90
5675;DHT22;2860;54.284;10.158;2022-08-04T00:31:04;18.80;99.90
5675;DHT22;2860;54.284;10.158;2022-08-04T00:33:30;18.80;99.90
5675;DHT22;2860;54.284;10.158;2022-08-04T00:35:56;18.80;99.90
5675;DHT22;2860;54.284;10.158;2022-08-04T00:38:23;18.80;99.90
5675;DHT22;2860;54.284;10.158;2022-08-04T00:43:32;18.70;99.90
5675;DHT22;2860;54.284;10.158;2022-08-04T00:49:14;18.70;99.90
5675;DHT22;2860;54.284;10.158;2022-08-04T00:52:00;18.60;99.90
5675;DHT22;2860;54.284;10.158;2022-08-04T00:54:51;18.60;99.90
5675;DHT22;2860;54.284;10.158;2022-08-04T01:00:10;18.50;99.90
5675;DHT22;2860;54.284;10.158;2022-08-04T01:05:33;18.50;99.90
5675;DHT22;2860;54.284;10.158;2022-08-04T01:11:11;18.40;99.90
5675;DHT22;2860;54.284;10.158;2022-08-04T01:16:20;18.40;99.90
5675;DHT22;2860;54.284;10.158;2022-08-04T01:19:00;18.40;99.90
5675;DHT22;2860;54.284;10.158;2022-08-04T01:24:17;18.40;99.90
5675;DHT22;2860;54.284;10.158;2022-08-04T01:27:22;18.40;99.90
5675;DHT22;2860;54.284;10.158;2022-08-04T01:29:54;18.40;99.90
5675;DHT22;2860;54.284;10.158;2022-08-04T01:32:37;18.40;99.90
5675;DHT22;2860;54.284;10.158;2022-08-04T01:35:10;18.30;99.90
5675;DHT22;2860;54.284;10.158;2022-08-04T01:40:06;18.30;99.90
5675;DHT22;2860;54.284;10.158;2022-08-04T01:42:33;18.30;99.90
5675;DHT22;2860;54.284;10.158;2022-08-04T01:45:04;18.30;99.90
5675;DHT22;2860;54.284;10.158;2022-08-04T01:47:30;18.30;99.90
5675;DHT22;2860;54.284;10.158;2022-08-04T01:50:05;18.20;99.90
5675;DHT22;2860;54.284;10.158;2022-08-04T01:52:31;18.30;99.90
5675;DHT22;2860;54.284;10.158;2022-08-04T01:55:00;18.30;99.90
5675;DHT22;2860;54.284;10.158;2022-08-04T01:57:27;18.30;99.90
5675;DHT22;2860;54.284;10.158;2022-08-04T01:59:57;18.20;99.90
5675;DHT22;2860;54.284;10.158;2022-08-04T02:02:23;18.20;99.90
5675;DHT22;2860;54.284;10.158;2022-08-04T02:04:48;18.20;99.90
5675;DHT22;2860;54.284;10.158;2022-08-04T02:10:03;18.10;99.90
5675;DHT22;2860;54.284;10.158;2022-08-04T02:15:35;18.10;99.90
5675;DHT22;2860;54.284;10.158;2022-08-04T02:18:04;18.00;99.90
5675;DHT22;2860;54.284;10.158;2022-08-04T02:20:37;18.00;99.90
5675;DHT22;2860;54.284;10.158;2022-08-04T02:23:08;18.00;99.90
5675;DHT22;2860;54.284;10.158;2022-08-04T02:25:45;18.00;99.90
5675;DHT22;2860;54.284;10.158;2022-08-04T02:31:00;17.90;99.90
5675;DHT22;2860;54.284;10.158;2022-08-04T02:33:36;17.90;99.90
5675;DHT22;2860;54.284;10.158;2022-08-04T02:36:03;17.80;99.90
5675;DHT22;2860;54.284;10.158;2022-08-04T02:38:46;17.80;99.90
5675;DHT22;2860;54.284;10.158;2022-08-04T02:41:16;17.80;99.90
5675;DHT22;2860;54.284;10.158;2022-08-04T02:43:43;17.80;99.90
5675;DHT22;2860;54.284;10.158;2022-08-04T02:46:12;17.70;99.90
5675;DHT22;2860;54.284;10.158;2022-08-04T02:48:39;17.70;99.90
5675;DHT22;2860;54.284;10.158;2022-08-04T02:51:10;17.70;99.90
5675;DHT22;2860;54.284;10.158;2022-08-04T02:53:37;17.70;99.90
5675;DHT22;2860;54.284;10.158;2022-08-04T02:56:06;17.70;99.90
5675;DHT22;2860;54.284;10.158;2022-08-04T02:58:34;17.60;99.90
5675;DHT22;2860;54.284;10.158;2022-08-04T03:01:00;17.60;99.90
5675;DHT22;2860;54.284;10.158;2022-08-04T03:11:36;17.60;99.90
5675;DHT22;2860;54.284;10.158;2022-08-04T03:14:29;17.60;99.90
5675;DHT22;2860;54.284;10.158;2022-08-04T03:20:05;17.50;99.90
5675;DHT22;2860;54.284;10.158;2022-08-04T03:25:37;17.50;99.90
5675;DHT22;2860;54.284;10.158;2022-08-04T03:28:22;17.40;99.90
5675;DHT22;2860;54.284;10.158;2022-08-04T03:31:20;17.40;99.90
5675;DHT22;2860;54.284;10.158;2022-08-04T03:34:22;17.40;99.90
5675;DHT22;2860;54.284;10.158;2022-08-04T03:45:32;17.30;99.90
5675;DHT22;2860;54.284;10.158;2022-08-04T03:54:02;17.30;99.90
5675;DHT22;2860;54.284;10.158;2022-08-04T03:59:54;17.20;99.90
5675;DHT22;2860;54.284;10.158;2022-08-04T04:05:47;17.20;99.90
5675;DHT22;2860;54.284;10.158;2022-08-04T04:08:45;17.20;99.90
5675;DHT22;2860;54.284;10.158;2022-08-04T04:16:42;17.30;99.90
5675;DHT22;2860;54.284;10.158;2022-08-04T04:22:35;17.30;99.90
5675;DHT22;2860;54.284;10.158;2022-08-04T04:28:20;17.40;99.90
5675;DHT22;2860;54.284;10.158;2022-08-04T04:36:22;17.50;99.90
5675;DHT22;2860;54.284;10.158;2022-08-04T04:44:55;17.70;99.90
5675;DHT22;2860;54.284;10.158;2022-08-04T04:50:33;17.90;99.90
5675;DHT22;2860;54.284;10.158;2022-08-04T04:56:10;18.10;99.90
5675;DHT22;2860;54.284;10.158;2022-08-04T04:58:38;18.20;99.90
5675;DHT22;2860;54.284;10.158;2022-08-04T05:04:23;18.40;99.90
5675;DHT22;2860;54.284;10.158;2022-08-04T05:10:25;18.70;99.90
5675;DHT22;2860;54.284;10.158;2022-08-04T05:15:29;19.30;99.90
5675;DHT22;2860;54.284;10.158;2022-08-04T05:17:56;20.20;99.90
5675;DHT22;2860;54.284;10.158;2022-08-04T05:20:34;21.30;99.90
5675;DHT22;2860;54.284;10.158;2022-08-04T05:23:11;22.40;99.90
5675;DHT22;2860;54.284;10.158;2022-08-04T05:25:48;23.50;99.90
5675;DHT22;2860;54.284;10.158;2022-08-04T05:28:17;24.30;99.90
5675;DHT22;2860;54.284;10.158;2022-08-04T05:30:52;24.90;99.90
5675;DHT22;2860;54.284;10.158;2022-08-04T05:33:24;25.40;99.90
5675;DHT22;2860;54.284;10.158;2022-08-04T05:35:56;25.80;99.90
5675;DHT22;2860;54.284;10.158;2022-08-04T05:38:26;25.70;99.90
5675;DHT22;2860;54.284;10.158;2022-08-04T05:40:54;25.60;99.90
5675;DHT22;2860;54.284;10.158;2022-08-04T05:43:21;25.60;99.90
5675;DHT22;2860;54.284;10.158;2022-08-04T05:45:48;25.50;99.90
5675;DHT22;2860;54.284;10.158;2022-08-04T05:48:15;25.50;99.90
5675;DHT22;2860;54.284;10.158;2022-08-04T05:50:42;25.60;99.90
5675;DHT22;2860;54.284;10.158;2022-08-04T05:53:09;25.60;99.90
5675;DHT22;2860;54.284;10.158;2022-08-04T05:55:35;25.80;99.90
5675;DHT22;2860;54.284;10.158;2022-08-04T05:58:01;26.10;99.90
5675;DHT22;2860;54.284;10.158;2022-08-04T06:00:28;26.30;99.90
5675;DHT22;2860;54.284;10.158;2022-08-04T06:02:55;26.40;99.90
5675;DHT22;2860;54.284;10.158;2022-08-04T06:05:23;26.60;99.90
5675;DHT22;2860;54.284;10.158;2022-08-04T06:07:49;26.80;99.90
5675;DHT22;2860;54.284;10.158;2022-08-04T06:10:14;26.90;99.90
5675;DHT22;2860;54.284;10.158;2022-08-04T06:12:57;27.00;99.90
5675;DHT22;2860;54.284;10.158;2022-08-04T06:15:25;27.20;99.90
5675;DHT22;2860;54.284;10.158;2022-08-04T06:17:55;27.40;99.90
5675;DHT22;2860;54.284;10.158;2022-08-04T06:20:27;27.40;99.90
5675;DHT22;2860;54.284;10.158;2022-08-04T06:22:55;27.50;99.90
5675;DHT22;2860;54.284;10.158;2022-08-04T06:25:24;27.50;99.90
5675;DHT22;2860;54.284;10.158;2022-08-04T06:27:51;27.50;99.90
5675;DHT22;2860;54.284;10.158;2022-08-04T06:30:17;27.50;99.90
5675;DHT22;2860;54.284;10.158;2022-08-04T06:32:45;27.30;99.90
5675;DHT22;2860;54.284;10.158;2022-08-04T06:35:15;27.30;99.90
5675;DHT22;2860;54.284;10.158;2022-08-04T06:37:45;27.10;99.90
5675;DHT22;2860;54.284;10.158;2022-08-04T06:40:15;26.80;99.90
5675;DHT22;2860;54.284;10.158;2022-08-04T06:42:42;26.60;99.90
5675;DHT22;2860;54.284;10.158;2022-08-04T06:45:09;26.50;99.90
5675;DHT22;2860;54.284;10.158;2022-08-04T06:47:37;26.40;99.90
5675;DHT22;2860;54.284;10.158;2022-08-04T06:50:04;26.30;99.90
5675;DHT22;2860;54.284;10.158;2022-08-04T06:52:30;26.20;99.90
5675;DHT22;2860;54.284;10.158;2022-08-04T06:54:56;26.10;99.90
5675;DHT22;2860;54.284;10.158;2022-08-04T06:57:25;26.10;99.90
5675;DHT22;2860;54.284;10.158;2022-08-04T06:59:59;26.10;99.90
5675;DHT22;2860;54.284;10.158;2022-08-04T07:02:27;26.20;99.90
5675;DHT22;2860;54.284;10.158;2022-08-04T07:04:53;26.20;99.90
5675;DHT22;2860;54.284;10.158;2022-08-04T07:07:19;26.30;99.90
5675;DHT22;2860;54.284;10.158;2022-08-04T07:09:45;26.40;99.90
5675;DHT22;2860;54.284;10.158;2022-08-04T07:12:11;26.50;99.90
5675;DHT22;2860;54.284;10.158;2022-08-04T07:14:39;26.60;99.90
5675;DHT22;2860;54.284;10.158;2022-08-04T07:17:07;26.60;99.90
5675;DHT22;2860;54.284;10.158;2022-08-04T07:19:34;26.60;99.90
5675;DHT22;2860;54.284;10.158;2022-08-04T07:22:01;26.70;99.90
5675;DHT22;2860;54.284;10.158;2022-08-04T07:24:31;26.90;99.90
5675;DHT22;2860;54.284;10.158;2022-08-04T07:26:57;27.10;99.90
5675;DHT22;2860;54.284;10.158;2022-08-04T07:29:23;27.20;99.90
5675;DHT22;2860;54.284;10.158;2022-08-04T07:31:50;27.30;99.90
5675;DHT22;2860;54.284;10.158;2022-08-04T07:34:16;27.50;99.90
5675;DHT22;2860;54.284;10.158;2022-08-04T07:36:43;27.70;99.90
5675;DHT22;2860;54.284;10.158;2022-08-04T07:39:08;27.80;99.90
5675;DHT22;2860;54.284;10.158;2022-08-04T07:41:34;27.90;99.90
5675;DHT22;2860;54.284;10.158;2022-08-04T07:44:00;27.90;99.90
5675;DHT22;2860;54.284;10.158;2022-08-04T07:46:27;28.00;99.90
5675;DHT22;2860;54.284;10.158;2022-08-04T07:48:53;28.10;99.90
5675;DHT22;2860;54.284;10.158;2022-08-04T07:51:19;28.20;99.90
5675;DHT22;2860;54.284;10.158;2022-08-04T07:53:46;28.40;99.90
5675;DHT22;2860;54.284;10.158;2022-08-04T07:56:14;28.50;99.90
5675;DHT22;2860;54.284;10.158;2022-08-04T07:58:40;28.50;99.90
5675;DHT22;2860;54.284;10.158;2022-08-04T08:01:06;28.70;99.90
5675;DHT22;2860;54.284;10.158;2022-08-04T08:03:33;28.70;99.90
5675;DHT22;2860;54.284;10.158;2022-08-04T08:05:59;28.90;99.90
5675;DHT22;2860;54.284;10.158;2022-08-04T08:08:24;29.10;99.90
5675;DHT22;2860;54.284;10.158;2022-08-04T08:10:50;29.30;99.90
5675;DHT22;2860;54.284;10.158;2022-08-04T08:13:16;29.30;99.90
5675;DHT22;2860;54.284;10.158;2022-08-04T08:15:44;29.40;99.90
5675;DHT22;2860;54.284;10.158;2022-08-04T08:18:11;29.50;99.90
5675;DHT22;2860;54.284;10.158;2022-08-04T08:20:36;29.50;99.90
5675;DHT22;2860;54.284;10.158;2022-08-04T08:23:02;29.70;99.90
5675;DHT22;2860;54.284;10.158;2022-08-04T08:25:31;29.80;99.90
5675;DHT22;2860;54.284;10.158;2022-08-04T08:27:57;29.90;99.90
5675;DHT22;2860;54.284;10.158;2022-08-04T08:30:26;30.10;99.90
5675;DHT22;2860;54.284;10.158;2022-08-04T08:32:51;30.20;99.90
5675;DHT22;2860;54.284;10.158;2022-08-04T08:35:17;30.40;99.90
5675;DHT22;2860;54.284;10.158;2022-08-04T08:37:55;30.40;99.90
5675;DHT22;2860;54.284;10.158;2022-08-04T08:43:23;30.80;99.90
5675;DHT22;2860;54.284;10.158;2022-08-04T09:00:55;31.70;99.90
5675;DHT22;2860;54.284;10.158;2022-08-04T09:11:49;32.30;99.90
5675;DHT22;2860;54.284;10.158;2022-08-04T09:14:24;32.50;99.90
5675;DHT22;2860;54.284;10.158;2022-08-04T09:16:51;32.60;99.90
5675;DHT22;2860;54.284;10.158;2022-08-04T09:22:04;32.70;99.90
5675;DHT22;2860;54.284;10.158;2022-08-04T09:24:53;32.90;99.90
5675;DHT22;2860;54.284;10.158;2022-08-04T09:27:37;32.90;99.90
5675;DHT22;2860;54.284;10.158;2022-08-04T09:30:06;33.10;99.90
5675;DHT22;2860;54.284;10.158;2022-08-04T09:32:52;33.20;99.90
5675;DHT22;2860;54.284;10.158;2022-08-04T09:36:00;33.40;99.90
5675;DHT22;2860;54.284;10.158;2022-08-04T09:44:27;33.40;99.90
5675;DHT22;2860;54.284;10.158;2022-08-04T09:47:03;33.40;99.90
5675;DHT22;2860;54.284;10.158;2022-08-04T09:55:23;33.40;99.90
5675;DHT22;2860;54.284;10.158;2022-08-04T10:01:03;33.70;99.90
5675;DHT22;2860;54.284;10.158;2022-08-04T10:03:44;34.00;99.90
5675;DHT22;2860;54.284;10.158;2022-08-04T10:06:25;34.30;99.90
5675;DHT22;2860;54.284;10.158;2022-08-04T10:09:07;34.40;99.90
5675;DHT22;2860;54.284;10.158;2022-08-04T10:12:20;34.20;99.90
5675;DHT22;2860;54.284;10.158;2022-08-04T10:15:01;34.10;99.90
5675;DHT22;2860;54.284;10.158;2022-08-04T10:20:08;34.10;99.90
5675;DHT22;2860;54.284;10.158;2022-08-04T10:22:38;34.00;99.90
5675;DHT22;2860;54.284;10.158;2022-08-04T10:28:05;34.00;99.90
5675;DHT22;2860;54.284;10.158;2022-08-04T10:30:34;33.90;99.90
5675;DHT22;2860;54.284;10.158;2022-08-04T10:35:36;34.00;99.90
5675;DHT22;2860;54.284;10.158;2022-08-04T10:46:16;34.10;99.90
5675;DHT22;2860;54.284;10.158;2022-08-04T10:48:50;34.20;99.90
5675;DHT22;2860;54.284;10.158;2022-08-04T10:51:33;34.20;99.90
5675;DHT22;2860;54.284;10.158;2022-08-04T10:54:04;34.30;99.90
5675;DHT22;2860;54.284;10.158;2022-08-04T10:56:35;34.40;99.90
5675;DHT22;2860;54.284;10.158;2022-08-04T10:59:12;34.50;99.90
5675;DHT22;2860;54.284;10.158;2022-08-04T11:01:44;34.50;99.90
5675;DHT22;2860;54.284;10.158;2022-08-04T11:06:52;34.00;99.90
5675;DHT22;2860;54.284;10.158;2022-08-04T11:09:19;33.80;99.90
5675;DHT22;2860;54.284;10.158;2022-08-04T11:11:56;33.70;99.90
5675;DHT22;2860;54.284;10.158;2022-08-04T11:14:36;34.00;99.90
5675;DHT22;2860;54.284;10.158;2022-08-04T11:17:10;34.20;99.90
5675;DHT22;2860;54.284;10.158;2022-08-04T11:20:01;34.50;99.90
5675;DHT22;2860;54.284;10.158;2022-08-04T11:22:28;34.80;99.90
5675;DHT22;2860;54.284;10.158;2022-08-04T11:25:07;34.80;99.90
5675;DHT22;2860;54.284;10.158;2022-08-04T11:27:54;34.80;99.90
5675;DHT22;2860;54.284;10.158;2022-08-04T11:30:38;35.00;99.90
5675;DHT22;2860;54.284;10.158;2022-08-04T11:33:19;35.00;99.90
5675;DHT22;2860;54.284;10.158;2022-08-04T11:36:08;35.10;98.10
5675;DHT22;2860;54.284;10.158;2022-08-04T11:39:13;35.20;99.90
5675;DHT22;2860;54.284;10.158;2022-08-04T11:44:50;35.60;99.90
5675;DHT22;2860;54.284;10.158;2022-08-04T11:52:39;35.60;99.90
5675;DHT22;2860;54.284;10.158;2022-08-04T11:55:09;35.40;99.90
5675;DHT22;2860;54.284;10.158;2022-08-04T11:57:37;35.30;99.90
5675;DHT22;2860;54.284;10.158;2022-08-04T12:00:08;35.00;99.90
5675;DHT22;2860;54.284;10.158;2022-08-04T12:05:32;34.60;99.90
5675;DHT22;2860;54.284;10.158;2022-08-04T12:08:10;34.40;99.90
5675;DHT22;2860;54.284;10.158;2022-08-04T12:13:48;34.10;99.90
5675;DHT22;2860;54.284;10.158;2022-08-04T12:19:03;33.90;99.90
5675;DHT22;2860;54.284;10.158;2022-08-04T12:24:13;34.30;99.90
5675;DHT22;2860;54.284;10.158;2022-08-04T12:26:46;34.60;99.90
5675;DHT22;2860;54.284;10.158;2022-08-04T12:29:15;34.60;99.90
5675;DHT22;2860;54.284;10.158;2022-08-04T12:31:59;34.40;99.90
5675;DHT22;2860;54.284;10.158;2022-08-04T12:34:34;34.00;99.90
5675;DHT22;2860;54.284;10.158;2022-08-04T12:40:03;33.60;99.90
5675;DHT22;2860;54.284;10.158;2022-08-04T12:42:47;33.80;99.90
5675;DHT22;2860;54.284;10.158;2022-08-04T12:45:16;33.90;99.90
5675;DHT22;2860;54.284;10.158;2022-08-04T12:47:44;34.20;99.90
5675;DHT22;2860;54.284;10.158;2022-08-04T12:50:13;34.60;99.90
5675;DHT22;2860;54.284;10.158;2022-08-04T12:52:45;35.00;99.90
5675;DHT22;2860;54.284;10.158;2022-08-04T12:55:12;35.10;99.90
5675;DHT22;2860;54.284;10.158;2022-08-04T12:57:39;35.20;99.90
5675;DHT22;2860;54.284;10.158;2022-08-04T13:00:07;35.20;99.90
5675;DHT22;2860;54.284;10.158;2022-08-04T13:02:40;35.20;99.90
5675;DHT22;2860;54.284;10.158;2022-08-04T13:05:08;35.30;99.90
5675;DHT22;2860;54.284;10.158;2022-08-04T13:07:40;35.40;99.90
5675;DHT22;2860;54.284;10.158;2022-08-04T13:10:14;35.40;99.90
5675;DHT22;2860;54.284;10.158;2022-08-04T13:12:43;35.30;99.90
5675;DHT22;2860;54.284;10.158;2022-08-04T13:15:17;35.20;99.90
5675;DHT22;2860;54.284;10.158;2022-08-04T13:20:35;35.10;99.90
5675;DHT22;2860;54.284;10.158;2022-08-04T13:23:07;35.10;99.90
5675;DHT22;2860;54.284;10.158;2022-08-04T13:25:34;35.20;99.90
5675;DHT22;2860;54.284;10.158;2022-08-04T13:28:04;35.20;99.90
5675;DHT22;2860;54.284;10.158;2022-08-04T13:30:31;35.30;99.90
5675;DHT22;2860;54.284;10.158;2022-08-04T13:33:01;35.50;99.90
5675;DHT22;2860;54.284;10.158;2022-08-04T13:35:28;35.60;99.30
5675;DHT22;2860;54.284;10.158;2022-08-04T13:37:56;35.70;97.90
5675;DHT22;2860;54.284;10.158;2022-08-04T13:40:25;35.80;99.60
5675;DHT22;2860;54.284;10.158;2022-08-04T13:42:52;35.70;99.70
5675;DHT22;2860;54.284;10.158;2022-08-04T13:45:20;35.70;99.10
5675;DHT22;2860;54.284;10.158;2022-08-04T13:47:48;35.70;99.20
5675;DHT22;2860;54.284;10.158;2022-08-04T13:50:24;35.70;98.70
5675;DHT22;2860;54.284;10.158;2022-08-04T13:53:00;35.80;99.80
5675;DHT22;2860;54.284;10.158;2022-08-04T13:55:34;35.60;98.40
5675;DHT22;2860;54.284;10.158;2022-08-04T13:58:21;35.40;99.40
5675;DHT22;2860;54.284;10.158;2022-08-04T14:01:21;35.30;99.40
5675;DHT22;2860;54.284;10.158;2022-08-04T14:03:57;35.20;99.30
5675;DHT22;2860;54.284;10.158;2022-08-04T14:06:34;35.00;99.50
5675;DHT22;2860;54.284;10.158;2022-08-04T14:09:09;35.00;99.30
5675;DHT22;2860;54.284;10.158;2022-08-04T14:11:41;35.00;99.90
5675;DHT22;2860;54.284;10.158;2022-08-04T14:14:13;34.80;99.90
5675;DHT22;2860;54.284;10.158;2022-08-04T14:19:26;34.30;99.90
5675;DHT22;2860;54.284;10.158;2022-08-04T14:21:52;34.30;99.90
5675;DHT22;2860;54.284;10.158;2022-08-04T14:24:26;34.40;99.90
5675;DHT22;2860;54.284;10.158;2022-08-04T14:26:52;34.60;99.90
5675;DHT22;2860;54.284;10.158;2022-08-04T14:29:22;34.70;99.90
5675;DHT22;2860;54.284;10.158;2022-08-04T14:31:49;34.70;99.90
5675;DHT22;2860;54.284;10.158;2022-08-04T14:34:28;34.70;99.90
5675;DHT22;2860;54.284;10.158;2022-08-04T14:36:54;34.90;99.90
5675;DHT22;2860;54.284;10.158;2022-08-04T14:39:41;34.90;99.90
5675;DHT22;2860;54.284;10.158;2022-08-04T14:42:07;34.60;99.90
5675;DHT22;2860;54.284;10.158;2022-08-04T14:44:56;34.00;99.90
5675;DHT22;2860;54.284;10.158;2022-08-04T14:47:44;33.70;99.90
5675;DHT22;2860;54.284;10.158;2022-08-04T14:50:11;33.60;99.90
5675;DHT22;2860;54.284;10.158;2022-08-04T14:52:37;33.60;99.90
5675;DHT22;2860;54.284;10.158;2022-08-04T14:55:17;33.70;99.90
5675;DHT22;2860;54.284;10.158;2022-08-04T14:57:43;34.00;99.90
5675;DHT22;2860;54.284;10.158;2022-08-04T15:00:09;33.90;99.90
5675;DHT22;2860;54.284;10.158;2022-08-04T15:02:35;33.60;99.90
5675;DHT22;2860;54.284;10.158;2022-08-04T15:05:03;33.40;99.90
5675;DHT22;2860;54.284;10.158;2022-08-04T15:07:29;33.20;99.90
5675;DHT22;2860;54.284;10.158;2022-08-04T15:09:55;33.00;99.90
5675;DHT22;2860;54.284;10.158;2022-08-04T15:12:21;32.60;99.90
5675;DHT22;2860;54.284;10.158;2022-08-04T15:14:47;32.30;99.90
5675;DHT22;2860;54.284;10.158;2022-08-04T15:17:13;32.00;99.90
5675;DHT22;2860;54.284;10.158;2022-08-04T15:19:39;31.80;99.90
5675;DHT22;2860;54.284;10.158;2022-08-04T15:22:04;31.40;99.90
5675;DHT22;2860;54.284;10.158;2022-08-04T15:24:31;31.20;99.90
5675;DHT22;2860;54.284;10.158;2022-08-04T15:26:58;30.90;99.90
5675;DHT22;2860;54.284;10.158;2022-08-04T15:29:37;30.80;99.90
5675;DHT22;2860;54.284;10.158;2022-08-04T15:32:05;30.60;99.90
5675;DHT22;2860;54.284;10.158;2022-08-04T15:34:47;30.40;99.90
5675;DHT22;2860;54.284;10.158;2022-08-04T15:37:27;30.10;99.90
5675;DHT22;2860;54.284;10.158;2022-08-04T15:40:16;29.90;99.90
5675;DHT22;2860;54.284;10.158;2022-08-04T15:43:02;29.70;99.90
5675;DHT22;2860;54.284;10.158;2022-08-04T15:45:38;29.50;99.90
5675;DHT22;2860;54.284;10.158;2022-08-04T15:48:22;29.30;99.90
5675;DHT22;2860;54.284;10.158;2022-08-04T15:53:25;28.80;99.90
5675;DHT22;2860;54.284;10.158;2022-08-04T15:55:52;28.60;99.90
5675;DHT22;2860;54.284;10.158;2022-08-04T15:58:18;28.50;99.90
5675;DHT22;2860;54.284;10.158;2022-08-04T16:19:08;28.30;99.90
5675;DHT22;2860;54.284;10.158;2022-08-04T16:21:45;28.20;99.90
5675;DHT22;2860;54.284;10.158;2022-08-04T16:26:46;28.10;99.90
5675;DHT22;2860;54.284;10.158;2022-08-04T16:29:37;28.00;99.90
5675;DHT22;2860;54.284;10.158;2022-08-04T16:34:47;27.70;99.90
5675;DHT22;2860;54.284;10.158;2022-08-04T16:37:13;27.50;99.90
5675;DHT22;2860;54.284;10.158;2022-08-04T16:39:40;27.30;99.90
5675;DHT22;2860;54.284;10.158;2022-08-04T16:50:17;26.70;99.90
5675;DHT22;2860;54.284;10.158;2022-08-04T16:52:53;26.50;99.90
5675;DHT22;2860;54.284;10.158;2022-08-04T16:55:24;26.40;99.90
5675;DHT22;2860;54.284;10.158;2022-08-04T16:57:51;26.30;99.90
5675;DHT22;2860;54.284;10.158;2022-08-04T17:00:30;26.30;99.90
5675;DHT22;2860;54.284;10.158;2022-08-04T17:02:56;26.20;99.90
5675;DHT22;2860;54.284;10.158;2022-08-04T17:05:25;26.20;99.90
5675;DHT22;2860;54.284;10.158;2022-08-04T17:07:55;26.20;99.90
5675;DHT22;2860;54.284;10.158;2022-08-04T17:10:38;26.20;99.90
5675;DHT22;2860;54.284;10.158;2022-08-04T17:13:20;26.30;99.90
5675;DHT22;2860;54.284;10.158;2022-08-04T17:15:47;26.40;99.90
5675;DHT22;2860;54.284;10.158;2022-08-04T17:18:16;26.50;99.90
5675;DHT22;2860;54.284;10.158;2022-08-04T17:20:42;26.40;99.90
5675;DHT22;2860;54.284;10.158;2022-08-04T17:23:29;26.30;99.90
5675;DHT22;2860;54.284;10.158;2022-08-04T17:26:07;26.10;99.90
5675;DHT22;2860;54.284;10.158;2022-08-04T17:28:34;26.00;99.90
5675;DHT22;2860;54.284;10.158;2022-08-04T17:31:00;25.70;99.90
5675;DHT22;2860;54.284;10.158;2022-08-04T17:33:26;25.50;99.90
5675;DHT22;2860;54.284;10.158;2022-08-04T17:35:55;25.40;99.90
5675;DHT22;2860;54.284;10.158;2022-08-04T17:38:22;25.30;99.90
5675;DHT22;2860;54.284;10.158;2022-08-04T17:40:59;25.30;99.90
5675;DHT22;2860;54.284;10.158;2022-08-04T17:54:20;25.20;99.90
5675;DHT22;2860;54.284;10.158;2022-08-04T17:56:47;25.20;99.90
5675;DHT22;2860;54.284;10.158;2022-08-04T17:59:41;25.20;99.90
5675;DHT22;2860;54.284;10.158;2022-08-04T18:02:07;25.20;99.90
5675;DHT22;2860;54.284;10.158;2022-08-04T18:07:04;25.10;99.90
5675;DHT22;2860;54.284;10.158;2022-08-04T18:09:32;25.00;99.90
5675;DHT22;2860;54.284;10.158;2022-08-04T18:12:03;24.90;99.90
5675;DHT22;2860;54.284;10.158;2022-08-04T18:14:41;24.80;99.90
5675;DHT22;2860;54.284;10.158;2022-08-04T18:17:08;24.70;99.90
5675;DHT22;2860;54.284;10.158;2022-08-04T18:19:34;24.60;99.90
5675;DHT22;2860;54.284;10.158;2022-08-04T18:22:02;24.40;99.90
5675;DHT22;2860;54.284;10.158;2022-08-04T18:24:29;24.30;99.90
5675;DHT22;2860;54.284;10.158;2022-08-04T18:26:55;24.20;99.90
5675;DHT22;2860;54.284;10.158;2022-08-04T18:29:20;24.20;99.90
5675;DHT22;2860;54.284;10.158;2022-08-04T18:31:46;24.10;99.90
5675;DHT22;2860;54.284;10.158;2022-08-04T18:34:11;24.00;99.90
5675;DHT22;2860;54.284;10.158;2022-08-04T18:36:37;24.00;99.90
5675;DHT22;2860;54.284;10.158;2022-08-04T18:39:04;23.90;99.90
5675;DHT22;2860;54.284;10.158;2022-08-04T18:41:31;23.80;99.90
5675;DHT22;2860;54.284;10.158;2022-08-04T18:43:57;23.70;99.90
5675;DHT22;2860;54.284;10.158;2022-08-04T18:46:23;23.70;99.90
5675;DHT22;2860;54.284;10.158;2022-08-04T18:48:49;23.60;99.90
5675;DHT22;2860;54.284;10.158;2022-08-04T18:51:14;23.50;99.90
5675;DHT22;2860;54.284;10.158;2022-08-04T18:53:40;23.40;99.90
5675;DHT22;2860;54.284;10.158;2022-08-04T18:56:06;23.20;99.90
5675;DHT22;2860;54.284;10.158;2022-08-04T18:58:32;23.20;99.90
5675;DHT22;2860;54.284;10.158;2022-08-04T19:00:57;23.10;99.90
5675;DHT22;2860;54.284;10.158;2022-08-04T19:03:23;23.10;99.90
5675;DHT22;2860;54.284;10.158;2022-08-04T19:05:49;23.10;99.90
5675;DHT22;2860;54.284;10.158;2022-08-04T19:08:14;23.10;99.90
5675;DHT22;2860;54.284;10.158;2022-08-04T19:10:40;23.00;99.90
5675;DHT22;2860;54.284;10.158;2022-08-04T19:13:06;23.00;99.90
5675;DHT22;2860;54.284;10.158;2022-08-04T19:15:31;23.00;99.90
5675;DHT22;2860;54.284;10.158;2022-08-04T19:17:57;22.90;99.90
5675;DHT22;2860;54.284;10.158;2022-08-04T19:20:23;22.80;99.90
5675;DHT22;2860;54.284;10.158;2022-08-04T19:22:48;22.70;99.90
5675;DHT22;2860;54.284;10.158;2022-08-04T19:25:14;22.60;99.90
5675;DHT22;2860;54.284;10.158;2022-08-04T19:27:39;22.50;99.90
5675;DHT22;2860;54.284;10.158;2022-08-04T19:30:06;22.50;99.90
5675;DHT22;2860;54.284;10.158;2022-08-04T19:32:31;22.40;99.90
5675;DHT22;2860;54.284;10.158;2022-08-04T19:34:57;22.30;99.90
5675;DHT22;2860;54.284;10.158;2022-08-04T19:37:22;22.20;99.90
5675;DHT22;2860;54.284;10.158;2022-08-04T19:39:48;22.10;99.90
5675;DHT22;2860;54.284;10.158;2022-08-04T19:42:15;22.00;99.90
5675;DHT22;2860;54.284;10.158;2022-08-04T19:44:40;21.90;99.90
5675;DHT22;2860;54.284;10.158;2022-08-04T19:47:06;21.80;99.90
5675;DHT22;2860;54.284;10.158;2022-08-04T19:49:31;21.80;99.90
5675;DHT22;2860;54.284;10.158;2022-08-04T19:51:57;21.70;99.90
5675;DHT22;2860;54.284;10.158;2022-08-04T19:54:22;21.60;99.90
5675;DHT22;2860;54.284;10.158;2022-08-04T19:56:48;21.60;99.90
5675;DHT22;2860;54.284;10.158;2022-08-04T19:59:13;21.50;99.90
5675;DHT22;2860;54.284;10.158;2022-08-04T20:01:39;21.40;99.90
5675;DHT22;2860;54.284;10.158;2022-08-04T20:04:05;21.40;99.90
5675;DHT22;2860;54.284;10.158;2022-08-04T20:06:30;21.30;99.90
5675;DHT22;2860;54.284;10.158;2022-08-04T20:08:56;21.30;99.90
5675;DHT22;2860;54.284;10.158;2022-08-04T20:11:21;21.20;99.90
5675;DHT22;2860;54.284;10.158;2022-08-04T20:13:47;21.20;99.90
5675;DHT22;2860;54.284;10.158;2022-08-04T20:16:13;21.10;99.90